createdAt,value
2018-05-15T00:01:31.977Z,62.00
2018-05-15T00:07:37.100Z,65.90
2018-05-15T00:13:41.476Z,65.90
2018-05-15T00:19:46.016Z,65.90
2018-05-15T00:25:51.220Z,65.10
2018-05-15T00:31:56.342Z,66.40
2018-05-15T00:38:00.685Z,66.30
2018-05-15T00:44:05.810Z,70.20
2018-05-15T00:50:10.173Z,70.20
2018-05-15T00:56:14.550Z,70.80
2018-05-15T01:02:19.530Z,72.00
2018-05-15T01:08:24.302Z,74.20
2018-05-15T01:14:29.425Z,75.80
2018-05-15T01:20:33.793Z,75.80
2018-05-15T01:26:38.123Z,77.50
2018-05-15T01:32:42.520Z,77.90
2018-05-15T01:38:46.874Z,79.00
2018-05-15T01:44:51.527Z,77.60
2018-05-15T01:50:56.771Z,78.90
2018-05-15T01:57:01.130Z,80.00
2018-05-15T02:03:06.257Z,79.80
2018-05-15T02:09:10.600Z,79.80
2018-05-15T02:15:15.056Z,80.40
2018-05-15T02:21:19.549Z,80.60
2018-05-15T02:27:23.929Z,81.90
2018-05-15T02:33:29.049Z,84.20
2018-05-15T02:39:33.395Z,84.20
2018-05-15T02:45:38.503Z,86.60
2018-05-15T02:51:42.863Z,86.50
2018-05-15T02:57:48.399Z,86.20
2018-05-15T03:03:53.373Z,86.20
2018-05-15T03:09:57.745Z,85.70
2018-05-15T03:16:02.097Z,86.00
2018-05-15T03:22:06.480Z,86.40
2018-05-15T03:28:11.604Z,86.90
2018-05-15T03:34:15.965Z,86.80
2018-05-15T03:40:20.723Z,87.70
2018-05-15T03:46:25.140Z,89.00
2018-05-15T03:52:29.500Z,90.20
2018-05-15T03:58:33.848Z,91.20
2018-05-15T04:04:56.831Z,92.90
2018-05-15T04:11:01.299Z,92.90
2018-05-15T04:17:06.539Z,94.00
2018-05-15T04:23:11.636Z,94.80
2018-05-15T04:29:16.743Z,94.70
2018-05-15T04:35:22.317Z,94.70
2018-05-15T04:41:26.637Z,95.10
2018-05-15T04:47:31.165Z,95.40
2018-05-15T04:53:35.521Z,95.10
2018-05-15T04:59:40.033Z,94.40
2018-05-15T05:05:45.187Z,95.00
2018-05-15T05:11:50.818Z,95.20
2018-05-15T05:17:55.237Z,95.20
2018-05-15T05:23:59.592Z,94.40
2018-05-15T05:30:03.949Z,94.50
2018-05-15T05:36:09.287Z,94.00
2018-05-15T05:42:13.700Z,93.90
2018-05-15T05:48:18.120Z,94.30
2018-05-15T05:54:23.628Z,94.10
2018-05-15T06:00:28.164Z,94.10
2018-05-15T06:06:32.508Z,92.90
2018-05-15T06:12:37.270Z,92.60
2018-05-15T06:18:41.617Z,90.70
2018-05-15T06:24:46.746Z,89.60
2018-05-15T06:30:51.845Z,89.50
2018-05-15T06:36:57.047Z,90.30
2018-05-15T06:43:01.400Z,90.30
2018-05-15T06:49:05.952Z,88.70
2018-05-15T06:55:11.133Z,86.10
2018-05-15T07:01:16.242Z,87.50
2018-05-15T07:07:20.751Z,87.00
2018-05-15T07:13:26.243Z,86.70
2018-05-15T07:19:30.678Z,86.70
2018-05-15T07:25:35.009Z,83.50
2018-05-15T07:31:39.388Z,85.20
2018-05-15T07:37:43.753Z,82.30
2018-05-15T07:43:48.120Z,84.80
2018-05-15T07:49:53.875Z,81.60
2018-05-15T07:55:58.227Z,79.00
2018-05-15T08:02:02.620Z,78.20
2018-05-15T08:08:06.996Z,77.80
2018-05-15T08:14:11.343Z,78.20
2018-05-15T08:20:15.693Z,72.00
2018-05-15T08:26:20.135Z,69.50
2018-05-15T08:32:25.304Z,59.30
2018-05-15T08:38:29.664Z,59.30
2018-05-15T08:44:34.017Z,59.20
2018-05-15T08:50:38.381Z,54.20
2018-05-15T08:56:42.750Z,54.40
2018-05-15T09:02:47.865Z,53.80
2018-05-15T09:08:52.570Z,53.70
2018-05-15T09:14:57.269Z,55.30
2018-05-15T09:21:01.700Z,51.20
2018-05-15T09:27:06.043Z,48.90
2018-05-15T09:33:11.210Z,46.40
2018-05-15T09:39:16.337Z,47.60
2018-05-15T09:45:21.460Z,47.50
2018-05-15T09:51:25.829Z,45.50
2018-05-15T09:57:30.176Z,47.80
2018-05-15T10:03:34.733Z,51.30
2018-05-15T10:09:39.122Z,47.90
2018-05-15T10:15:44.245Z,49.30
2018-05-15T10:21:48.601Z,49.20
2018-05-15T10:27:53.053Z,46.20
2018-05-15T10:33:57.401Z,44.70
2018-05-15T10:40:01.952Z,46.90
2018-05-15T10:46:06.310Z,46.20
2018-05-15T10:52:10.653Z,49.20
2018-05-15T10:58:15.784Z,48.30
2018-05-15T11:04:20.372Z,48.40
2018-05-15T11:10:24.849Z,46.50
2018-05-15T11:16:29.293Z,46.30
2018-05-15T11:22:52.042Z,49.80
2018-05-15T11:28:56.441Z,49.50
2018-05-15T11:35:00.851Z,46.80
2018-05-15T11:41:06.849Z,49.00
2018-05-15T11:47:11.979Z,48.80
2018-05-15T11:53:16.838Z,48.60
2018-05-15T11:59:22.455Z,48.90
2018-05-15T12:05:26.850Z,48.80
2018-05-15T12:11:31.305Z,48.00
2018-05-15T12:17:35.691Z,47.60
2018-05-15T12:23:40.042Z,46.10
2018-05-15T12:29:45.432Z,46.40
2018-05-15T12:35:49.904Z,46.40
2018-05-15T12:41:55.645Z,48.60
2018-05-15T12:48:00.737Z,45.70
2018-05-15T12:54:05.178Z,45.60
2018-05-15T13:00:09.569Z,43.60
2018-05-15T13:06:13.923Z,45.90
2018-05-15T13:12:18.475Z,45.70
2018-05-15T13:18:23.861Z,41.10
2018-05-15T13:24:28.249Z,40.20
2018-05-15T13:30:32.577Z,39.20
2018-05-15T13:36:37.733Z,40.80
2018-05-15T13:42:42.086Z,40.80
2018-05-15T13:48:46.466Z,44.00
2018-05-15T13:54:50.857Z,45.90
2018-05-15T14:00:55.336Z,45.70
2018-05-15T14:06:59.748Z,45.00
2018-05-15T14:13:04.870Z,44.60
2018-05-15T14:19:09.250Z,44.50
2018-05-15T14:25:13.824Z,44.40
2018-05-15T14:31:18.140Z,43.10
2018-05-15T14:37:23.298Z,45.20
2018-05-15T14:43:27.770Z,45.20
2018-05-15T14:49:32.249Z,44.40
2018-05-15T14:55:36.674Z,44.70
2018-05-15T15:01:42.382Z,45.10
2018-05-15T15:07:48.197Z,45.70
2018-05-15T15:13:54.071Z,47.90
2018-05-15T15:19:59.285Z,49.20
2018-05-15T15:26:04.478Z,49.90
2018-05-15T15:32:08.913Z,49.90
2018-05-15T15:38:13.303Z,49.00
2018-05-15T15:44:17.655Z,48.50
2018-05-15T15:50:22.069Z,47.80
2018-05-15T15:56:26.424Z,49.90
2018-05-15T16:02:30.782Z,51.90
2018-05-15T16:08:35.174Z,59.70
2018-05-15T16:14:39.537Z,60.90
2018-05-15T16:20:43.895Z,62.10
2018-05-15T16:26:48.201Z,59.70
2018-05-15T16:32:53.394Z,57.50
2018-05-15T16:38:57.748Z,55.40
2018-05-15T16:45:02.106Z,53.90
2018-05-15T16:51:06.473Z,49.90
2018-05-15T16:57:11.601Z,43.80
2018-05-15T17:03:15.948Z,43.80
2018-05-15T17:09:20.636Z,46.10
2018-05-15T17:15:24.989Z,50.60
2018-05-15T17:21:30.142Z,51.90
2018-05-15T17:27:34.720Z,51.90
2018-05-15T17:33:39.121Z,53.30
2018-05-15T17:39:43.738Z,53.30
2018-05-15T17:45:48.243Z,52.70
2018-05-15T17:51:54.085Z,52.50
2018-05-15T17:57:59.565Z,58.30
2018-05-15T18:04:03.901Z,58.00
2018-05-15T18:10:08.267Z,59.50
2018-05-15T18:16:13.386Z,63.00
2018-05-15T18:22:17.697Z,63.00
2018-05-15T18:28:23.023Z,79.00
2018-05-15T18:34:28.140Z,92.90
2018-05-15T18:40:32.601Z,92.80
2018-05-15T18:46:37.303Z,97.70
2018-05-15T18:52:41.629Z,99.80
2018-05-15T18:58:45.986Z,99.90
2018-05-15T19:04:50.404Z,99.90
2018-05-15T19:10:54.776Z,99.90
2018-05-15T19:16:59.125Z,99.90
2018-05-15T19:23:03.664Z,99.90
2018-05-15T19:29:07.997Z,99.90
2018-05-15T19:35:18.603Z,99.90
2018-05-15T19:41:23.049Z,99.90
2018-05-15T19:47:27.349Z,99.90
2018-05-15T19:53:33.221Z,99.90
2018-05-15T19:59:37.550Z,99.90
2018-05-15T20:05:42.711Z,99.90
2018-05-15T20:11:47.073Z,99.90
2018-05-15T20:17:51.462Z,99.90
2018-05-15T20:23:55.984Z,99.90
2018-05-15T20:30:00.344Z,99.90
2018-05-15T20:36:05.470Z,99.90
2018-05-15T20:42:10.488Z,99.90
2018-05-15T20:48:14.762Z,99.90
2018-05-15T20:54:19.126Z,99.90
2018-05-15T21:00:23.798Z,99.90
2018-05-15T21:06:28.133Z,99.90
2018-05-15T21:12:33.276Z,99.90
2018-05-15T21:18:37.620Z,99.90
2018-05-15T21:24:41.996Z,99.90
2018-05-15T21:30:46.341Z,99.90
2018-05-15T21:36:50.865Z,99.90
2018-05-15T21:42:55.290Z,99.90
2018-05-15T21:48:59.649Z,99.90
2018-05-15T21:55:04.004Z,99.90
2018-05-15T22:01:08.372Z,99.90
2018-05-15T22:07:12.735Z,99.90
2018-05-15T22:13:35.029Z,99.90
2018-05-15T22:20:03.243Z,99.90
2018-05-15T22:26:13.590Z,99.90
2018-05-15T22:32:17.946Z,99.90
2018-05-15T22:38:22.849Z,99.90
2018-05-15T22:44:27.211Z,99.90
2018-05-15T22:50:32.014Z,99.90
2018-05-15T22:56:36.387Z,99.90
2018-05-15T23:02:40.734Z,99.90
2018-05-15T23:08:45.080Z,99.90
2018-05-15T23:14:49.564Z,99.90
2018-05-15T23:20:54.394Z,99.90
2018-05-15T23:26:59.588Z,99.90
2018-05-15T23:33:03.950Z,99.90
2018-05-15T23:39:08.316Z,99.90
2018-05-15T23:45:12.668Z,99.90
2018-05-15T23:51:17.041Z,99.90
2018-05-15T23:57:22.203Z,99.90
